createdAt,value
2016-12-10T00:00:35.891Z,978.15
2016-12-10T00:01:35.848Z,978.14
2016-12-10T00:02:35.804Z,978.14
2016-12-10T00:03:35.761Z,978.11
2016-12-10T00:04:35.718Z,978.09
2016-12-10T00:05:35.674Z,978.04
2016-12-10T00:06:35.630Z,978
2016-12-10T00:07:35.585Z,978.05
2016-12-10T00:08:35.541Z,978.02
2016-12-10T00:09:35.497Z,978.01
2016-12-10T00:10:35.454Z,978.02
2016-12-10T00:11:35.414Z,977.96
2016-12-10T00:12:35.367Z,977.96
2016-12-10T00:13:35.322Z,977.96
2016-12-10T00:14:35.280Z,978.01
2016-12-10T00:15:35.236Z,978.03
2016-12-10T00:16:35.191Z,978.06
2016-12-10T00:17:35.149Z,978.04
2016-12-10T00:18:35.107Z,978.04
2016-12-10T00:19:35.063Z,977.96
2016-12-10T00:20:35.018Z,978
2016-12-10T00:21:34.975Z,977.99
2016-12-10T00:22:34.936Z,977.97
2016-12-10T00:23:34.888Z,977.99
2016-12-10T00:24:34.843Z,977.98
2016-12-10T00:25:34.799Z,977.97
2016-12-10T00:26:34.757Z,977.98
2016-12-10T00:27:34.712Z,977.97
2016-12-10T00:28:34.669Z,978.01
2016-12-10T00:29:34.625Z,978.01
2016-12-10T00:30:34.581Z,978.02
2016-12-10T00:31:34.539Z,978.07
2016-12-10T00:32:34.496Z,978.09
2016-12-10T00:33:34.452Z,978.06
2016-12-10T00:34:34.406Z,978.05
2016-12-10T00:35:34.364Z,978.08
2016-12-10T00:36:34.320Z,978.06
2016-12-10T00:37:34.276Z,978.09
2016-12-10T00:38:34.231Z,978.12
2016-12-10T00:39:34.188Z,978.06
2016-12-10T00:40:34.145Z,978.08
2016-12-10T00:41:34.101Z,978.08
2016-12-10T00:42:34.067Z,978.06
2016-12-10T00:43:34.013Z,978.03
2016-12-10T00:44:33.971Z,978.08
2016-12-10T00:45:33.928Z,978.08
2016-12-10T00:46:33.885Z,978.04
2016-12-10T00:47:33.840Z,978.02
2016-12-10T00:48:33.797Z,978.1
2016-12-10T00:49:33.752Z,978.04
2016-12-10T00:50:33.711Z,978.06
2016-12-10T00:51:33.667Z,978.1
2016-12-10T00:52:33.624Z,978.06
2016-12-10T00:53:33.579Z,978.07
2016-12-10T00:54:33.538Z,978.06
2016-12-10T00:55:33.494Z,978.06
2016-12-10T00:56:33.449Z,978.07
2016-12-10T00:57:33.406Z,978.09
2016-12-10T00:58:33.365Z,978.07
2016-12-10T00:59:33.320Z,978.08
2016-12-10T01:00:33.274Z,978.08
2016-12-10T01:01:33.234Z,978.1
2016-12-10T01:02:33.192Z,978.08
2016-12-10T01:03:33.147Z,978.11
2016-12-10T01:04:33.104Z,978.12
2016-12-10T01:05:33.061Z,978.1
2016-12-10T01:06:33.019Z,978.17
2016-12-10T01:07:32.975Z,978.14
2016-12-10T01:08:32.931Z,978.16
2016-12-10T01:09:32.887Z,978.11
2016-12-10T01:10:32.847Z,978.13
2016-12-10T01:11:32.801Z,978.09
2016-12-10T01:12:32.759Z,978.09
2016-12-10T01:13:32.717Z,978.13
2016-12-10T01:14:32.672Z,978.13
2016-12-10T01:15:32.630Z,978.13
2016-12-10T01:16:32.588Z,978.13
2016-12-10T01:17:32.544Z,978.14
2016-12-10T01:18:32.500Z,978.19
2016-12-10T01:19:32.457Z,978.15
2016-12-10T01:20:32.416Z,978.17
2016-12-10T01:21:32.372Z,978.18
2016-12-10T01:22:32.329Z,978.13
2016-12-10T01:23:32.287Z,978.15
2016-12-10T01:24:32.243Z,978.15
2016-12-10T01:25:32.200Z,978.12
2016-12-10T01:26:32.157Z,978.21
2016-12-10T01:27:32.116Z,978.17
2016-12-10T01:28:32.072Z,978.21
2016-12-10T01:29:32.028Z,978.18
2016-12-10T01:30:31.986Z,978.18
2016-12-10T01:31:31.943Z,978.19
2016-12-10T01:32:31.899Z,978.15
2016-12-10T01:33:31.859Z,978.17
2016-12-10T01:34:31.814Z,978.17
2016-12-10T01:35:31.771Z,978.16
2016-12-10T01:36:31.728Z,978.15
2016-12-10T01:37:31.684Z,978.16
2016-12-10T01:38:31.642Z,978.13
2016-12-10T01:39:31.602Z,978.13
2016-12-10T01:40:31.556Z,978.1
2016-12-10T01:41:31.515Z,978.09
2016-12-10T01:42:31.472Z,978.08
2016-12-10T01:43:31.427Z,978.07
2016-12-10T01:44:31.385Z,978.1
2016-12-10T01:45:31.342Z,978.1
2016-12-10T01:46:31.300Z,978.06
2016-12-10T01:47:31.256Z,978.04
2016-12-10T01:48:31.213Z,978.03
2016-12-10T01:49:31.170Z,978.04
2016-12-10T01:50:31.127Z,978.01
2016-12-10T01:51:31.083Z,977.99
2016-12-10T01:52:31.041Z,977.95
2016-12-10T01:53:31.002Z,977.92
2016-12-10T01:54:30.957Z,977.88
2016-12-10T01:55:30.912Z,977.87
2016-12-10T01:56:30.868Z,977.87
2016-12-10T01:57:30.825Z,977.88
2016-12-10T01:58:30.782Z,977.88
2016-12-10T01:59:30.739Z,977.91
2016-12-10T02:00:30.696Z,977.89
2016-12-10T02:01:30.654Z,977.95
2016-12-10T02:02:30.610Z,977.98
2016-12-10T02:03:30.567Z,977.94
2016-12-10T02:04:30.522Z,977.93
2016-12-10T02:05:30.479Z,977.98
2016-12-10T02:06:30.436Z,977.98
2016-12-10T02:07:30.393Z,977.99
2016-12-10T02:08:30.351Z,977.97
2016-12-10T02:09:30.306Z,977.92
2016-12-10T02:10:30.265Z,977.95
2016-12-10T02:11:30.220Z,977.93
2016-12-10T02:12:30.177Z,977.88
2016-12-10T02:13:30.134Z,977.87
2016-12-10T02:14:30.092Z,977.85
2016-12-10T02:15:30.048Z,977.87
2016-12-10T02:16:30.003Z,977.86
2016-12-10T02:17:29.960Z,977.82
2016-12-10T02:18:29.919Z,977.83
2016-12-10T02:19:29.880Z,977.84
2016-12-10T02:20:29.830Z,977.82
2016-12-10T02:21:29.788Z,977.82
2016-12-10T02:22:29.744Z,977.81
2016-12-10T02:23:29.702Z,977.82
2016-12-10T02:24:29.657Z,977.82
2016-12-10T02:25:29.613Z,977.84
2016-12-10T02:26:29.571Z,977.83
2016-12-10T02:27:29.527Z,977.82
2016-12-10T02:28:29.484Z,977.81
2016-12-10T02:29:29.440Z,977.8
2016-12-10T02:30:29.398Z,977.83
2016-12-10T02:31:29.353Z,977.78
2016-12-10T02:32:29.310Z,977.77
2016-12-10T02:33:29.268Z,977.78
2016-12-10T02:34:29.223Z,977.79
2016-12-10T02:35:29.179Z,977.82
2016-12-10T02:36:29.136Z,977.81
2016-12-10T02:37:29.094Z,977.82
2016-12-10T02:38:29.049Z,977.81
2016-12-10T02:39:29.006Z,977.86
2016-12-10T02:40:28.963Z,977.82
2016-12-10T02:41:28.921Z,977.75
2016-12-10T02:42:28.875Z,977.73
2016-12-10T02:43:28.832Z,977.76
2016-12-10T02:44:28.789Z,977.71
2016-12-10T02:45:28.746Z,977.71
2016-12-10T02:46:28.702Z,977.64
2016-12-10T02:47:28.660Z,977.59
2016-12-10T02:48:28.616Z,977.6
2016-12-10T02:49:28.570Z,977.65
2016-12-10T02:50:28.528Z,977.63
2016-12-10T02:51:28.497Z,977.66
2016-12-10T02:52:28.441Z,977.6
2016-12-10T02:53:28.398Z,977.66
2016-12-10T02:54:28.354Z,977.65
2016-12-10T02:55:28.312Z,977.69
2016-12-10T02:56:28.268Z,977.6
2016-12-10T02:57:28.226Z,977.6
2016-12-10T02:58:28.182Z,977.67
2016-12-10T02:59:28.139Z,977.63
2016-12-10T03:00:28.099Z,977.64
2016-12-10T03:01:28.053Z,977.59
2016-12-10T03:02:28.010Z,977.6
2016-12-10T03:03:27.966Z,977.61
2016-12-10T03:04:27.923Z,977.63
2016-12-10T03:05:27.880Z,977.55
2016-12-10T03:06:27.836Z,977.58
2016-12-10T03:07:27.794Z,977.58
2016-12-10T03:08:27.753Z,977.57
2016-12-10T03:09:27.707Z,977.54
2016-12-10T03:10:27.666Z,977.58
2016-12-10T03:11:27.619Z,977.57
2016-12-10T03:12:27.576Z,977.59
2016-12-10T03:13:27.549Z,977.58
2016-12-10T03:14:27.490Z,977.58
2016-12-10T03:15:27.448Z,977.55
2016-12-10T03:16:27.405Z,977.58
2016-12-10T03:17:27.361Z,977.54
2016-12-10T03:18:27.317Z,977.56
2016-12-10T03:19:27.275Z,977.58
2016-12-10T03:20:27.232Z,977.57
2016-12-10T03:21:27.190Z,977.52
2016-12-10T03:22:27.145Z,977.56
2016-12-10T03:23:27.104Z,977.55
2016-12-10T03:24:27.061Z,977.54
2016-12-10T03:25:27.017Z,977.55
2016-12-10T03:26:26.974Z,977.57
2016-12-10T03:27:26.931Z,977.52
2016-12-10T03:28:26.888Z,977.51
2016-12-10T03:29:26.844Z,977.51
2016-12-10T03:30:26.800Z,977.45
2016-12-10T03:31:26.759Z,977.47
2016-12-10T03:32:26.715Z,977.45
2016-12-10T03:33:26.671Z,977.43
2016-12-10T03:34:26.629Z,977.47
2016-12-10T03:35:26.588Z,977.47
2016-12-10T03:36:26.544Z,977.46
2016-12-10T03:37:26.500Z,977.48
2016-12-10T03:38:26.466Z,977.43
2016-12-10T03:39:26.415Z,977.42
2016-12-10T03:40:26.372Z,977.41
2016-12-10T03:41:26.329Z,977.4
2016-12-10T03:42:26.288Z,977.4
2016-12-10T03:43:26.243Z,977.42
2016-12-10T03:44:26.200Z,977.38
2016-12-10T03:45:26.160Z,977.38
2016-12-10T03:46:26.114Z,977.39
2016-12-10T03:47:26.072Z,977.38
2016-12-10T03:48:26.028Z,977.34
2016-12-10T03:49:25.985Z,977.41
2016-12-10T03:50:25.942Z,977.33
2016-12-10T03:51:25.898Z,977.33
2016-12-10T03:52:25.855Z,977.31
2016-12-10T03:53:25.813Z,977.3
2016-12-10T03:54:25.770Z,977.27
2016-12-10T03:55:25.727Z,977.24
2016-12-10T03:56:25.683Z,977.22
2016-12-10T03:57:25.642Z,977.23
2016-12-10T03:58:25.597Z,977.23
2016-12-10T03:59:25.554Z,977.21
2016-12-10T04:00:25.513Z,977.24
2016-12-10T04:01:25.470Z,977.23
2016-12-10T04:02:25.425Z,977.2
2016-12-10T04:03:25.383Z,977.19
2016-12-10T04:04:25.338Z,977.18
2016-12-10T04:05:25.296Z,977.19
2016-12-10T04:06:25.253Z,977.17
2016-12-10T04:07:25.211Z,977.19
2016-12-10T04:08:25.170Z,977.18
2016-12-10T04:09:25.126Z,977.13
2016-12-10T04:10:25.081Z,977.12
2016-12-10T04:11:25.045Z,977.12
2016-12-10T04:12:24.996Z,977.12
2016-12-10T04:13:24.955Z,977.1
2016-12-10T04:14:24.910Z,977.18
2016-12-10T04:15:24.869Z,977.17
2016-12-10T04:16:24.826Z,977.16
2016-12-10T04:17:24.781Z,977.17
2016-12-10T04:18:24.739Z,977.16
2016-12-10T04:19:24.696Z,977.13
2016-12-10T04:20:24.654Z,977.2
2016-12-10T04:21:24.611Z,977.21
2016-12-10T04:22:24.568Z,977.16
2016-12-10T04:23:24.524Z,977.25
2016-12-10T04:24:24.480Z,977.23
2016-12-10T04:25:24.438Z,977.23
2016-12-10T04:26:24.396Z,977.22
2016-12-10T04:27:24.355Z,977.24
2016-12-10T04:28:24.309Z,977.22
2016-12-10T04:29:24.266Z,977.26
2016-12-10T04:30:24.224Z,977.25
2016-12-10T04:31:24.181Z,977.23
2016-12-10T04:32:24.139Z,977.18
2016-12-10T04:33:24.098Z,977.19
2016-12-10T04:34:24.054Z,977.21
2016-12-10T04:35:24.010Z,977.16
2016-12-10T04:36:23.966Z,977.19
2016-12-10T04:37:23.925Z,977.17
2016-12-10T04:38:23.880Z,977.17
2016-12-10T04:39:23.839Z,977.18
2016-12-10T04:40:23.795Z,977.18
2016-12-10T04:41:23.755Z,977.13
2016-12-10T04:42:23.709Z,977.14
2016-12-10T04:43:23.667Z,977.12
2016-12-10T04:44:23.624Z,977.11
2016-12-10T04:45:23.581Z,977.12
2016-12-10T04:46:23.536Z,977.05
2016-12-10T04:47:23.494Z,977.08
2016-12-10T04:48:23.452Z,977.03
2016-12-10T04:49:23.408Z,977.06
2016-12-10T04:50:23.365Z,977.05
2016-12-10T04:51:23.321Z,977.07
2016-12-10T04:52:23.280Z,977.12
2016-12-10T04:53:23.238Z,977.08
2016-12-10T04:54:23.193Z,977.06
2016-12-10T04:55:23.149Z,977.07
2016-12-10T04:56:23.112Z,977.05
2016-12-10T04:57:23.065Z,977.06
2016-12-10T04:58:23.023Z,977.08
2016-12-10T04:59:22.978Z,977.1
2016-12-10T05:00:22.937Z,977.14
2016-12-10T05:01:22.893Z,977.13
2016-12-10T05:02:22.849Z,977.1
2016-12-10T05:03:22.807Z,977.06
2016-12-10T05:04:22.764Z,977.12
2016-12-10T05:05:22.723Z,977.13
2016-12-10T05:06:22.679Z,977.11
2016-12-10T05:07:22.637Z,977.11
2016-12-10T05:08:22.594Z,977.12
2016-12-10T05:09:22.551Z,977.11
2016-12-10T05:10:22.506Z,977.11
2016-12-10T05:11:22.465Z,977.13
2016-12-10T05:12:22.423Z,977.16
2016-12-10T05:13:22.377Z,977.17
2016-12-10T05:14:22.339Z,977.19
2016-12-10T05:15:22.292Z,977.17
2016-12-10T05:16:22.249Z,977.17
2016-12-10T05:17:22.209Z,977.18
2016-12-10T05:18:22.164Z,977.19
2016-12-10T05:19:22.120Z,977.19
2016-12-10T05:20:22.079Z,977.21
2016-12-10T05:21:22.035Z,977.22
2016-12-10T05:22:21.993Z,977.19
2016-12-10T05:23:21.949Z,977.18
2016-12-10T05:24:21.906Z,977.2
2016-12-10T05:25:21.864Z,977.17
2016-12-10T05:26:21.820Z,977.19
2016-12-10T05:27:21.779Z,977.17
2016-12-10T05:28:21.736Z,977.19
2016-12-10T05:29:21.693Z,977.18
2016-12-10T05:30:21.649Z,977.16
2016-12-10T05:31:21.606Z,977.14
2016-12-10T05:32:21.563Z,977.16
2016-12-10T05:33:21.521Z,977.21
2016-12-10T05:34:21.477Z,977.16
2016-12-10T05:35:21.435Z,977.14
2016-12-10T05:36:21.393Z,977.12
2016-12-10T05:37:21.349Z,977.14
2016-12-10T05:38:21.307Z,977.12
2016-12-10T05:39:21.263Z,977.05
2016-12-10T05:40:21.222Z,977.05
2016-12-10T05:41:21.177Z,977.05
2016-12-10T05:42:21.136Z,977
2016-12-10T05:43:21.093Z,977.01
2016-12-10T05:44:21.051Z,976.99
2016-12-10T05:45:21.007Z,976.97
2016-12-10T05:46:20.963Z,976.99
2016-12-10T05:47:20.922Z,976.97
2016-12-10T05:48:20.877Z,976.99
2016-12-10T05:49:20.835Z,976.96
2016-12-10T05:50:20.793Z,977
2016-12-10T05:51:20.750Z,976.96
2016-12-10T05:52:20.707Z,976.98
2016-12-10T05:53:20.664Z,977
2016-12-10T05:54:20.622Z,977.04
2016-12-10T05:55:20.582Z,977.04
2016-12-10T05:56:20.536Z,977.05
2016-12-10T05:57:20.493Z,977.04
2016-12-10T05:58:20.451Z,977.04
2016-12-10T05:59:20.407Z,977.05
2016-12-10T06:00:20.366Z,977.07
2016-12-10T06:01:20.321Z,977.08
2016-12-10T06:02:20.280Z,977.08
2016-12-10T06:03:20.235Z,977.08
2016-12-10T06:04:20.192Z,977.14
2016-12-10T06:05:20.150Z,977.09
2016-12-10T06:06:20.109Z,977.12
2016-12-10T06:07:20.063Z,977.09
2016-12-10T06:08:20.022Z,977.13
2016-12-10T06:09:19.979Z,977.12
2016-12-10T06:10:19.934Z,977.11
2016-12-10T06:11:19.892Z,977.12
2016-12-10T06:12:19.851Z,977.08
2016-12-10T06:13:19.808Z,977.07
2016-12-10T06:14:19.762Z,977.09
2016-12-10T06:15:19.722Z,977.07
2016-12-10T06:16:19.677Z,977.1
2016-12-10T06:17:19.634Z,977.05
2016-12-10T06:18:19.591Z,977.06
2016-12-10T06:19:19.549Z,977.04
2016-12-10T06:20:19.505Z,977.04
2016-12-10T06:21:19.462Z,976.99
2016-12-10T06:22:19.419Z,976.98
2016-12-10T06:23:19.378Z,976.97
2016-12-10T06:24:19.335Z,976.98
2016-12-10T06:25:19.292Z,976.95
2016-12-10T06:26:19.248Z,976.92
2016-12-10T06:27:19.206Z,976.91
2016-12-10T06:28:19.161Z,976.94
2016-12-10T06:29:19.120Z,976.96
2016-12-10T06:30:19.076Z,976.93
2016-12-10T06:31:19.035Z,976.95
2016-12-10T06:32:18.997Z,976.93
2016-12-10T06:33:18.950Z,976.94
2016-12-10T06:34:18.903Z,976.96
2016-12-10T06:35:18.862Z,976.93
2016-12-10T06:36:18.819Z,976.94
2016-12-10T06:37:18.776Z,976.94
2016-12-10T06:38:18.733Z,976.95
2016-12-10T06:39:18.692Z,976.93
2016-12-10T06:40:18.647Z,976.98
2016-12-10T06:41:18.605Z,977.01
2016-12-10T06:42:18.562Z,977.02
2016-12-10T06:43:18.517Z,977.03
2016-12-10T06:44:18.476Z,977.04
2016-12-10T06:45:18.432Z,977.04
2016-12-10T06:46:18.389Z,977.08
2016-12-10T06:47:18.346Z,977.05
2016-12-10T06:48:18.311Z,977.08
2016-12-10T06:49:18.261Z,977.11
2016-12-10T06:50:18.216Z,977.1
2016-12-10T06:51:18.177Z,977.09
2016-12-10T06:52:18.131Z,977.1
2016-12-10T06:53:18.092Z,977.1
2016-12-10T06:54:18.045Z,977.11
2016-12-10T06:55:18.002Z,977.12
2016-12-10T06:56:17.960Z,977.11
2016-12-10T06:57:17.917Z,977.1
2016-12-10T06:58:17.873Z,977.06
2016-12-10T06:59:17.832Z,977.11
2016-12-10T07:00:17.787Z,977.14
2016-12-10T07:01:17.745Z,977.14
2016-12-10T07:02:17.702Z,977.12
2016-12-10T07:03:17.657Z,977.16
2016-12-10T07:04:17.616Z,977.11
2016-12-10T07:05:17.572Z,977.16
2016-12-10T07:06:17.530Z,977.15
2016-12-10T07:07:17.486Z,977.14
2016-12-10T07:08:17.443Z,977.18
2016-12-10T07:09:17.399Z,977.16
2016-12-10T07:10:17.357Z,977.18
2016-12-10T07:11:17.314Z,977.18
2016-12-10T07:12:17.271Z,977.21
2016-12-10T07:13:17.227Z,977.21
2016-12-10T07:14:17.183Z,977.22
2016-12-10T07:15:17.149Z,977.16
2016-12-10T07:16:17.098Z,977.19
2016-12-10T07:17:17.055Z,977.16
2016-12-10T07:18:17.012Z,977.14
2016-12-10T07:19:16.969Z,977.17
2016-12-10T07:20:16.925Z,977.19
2016-12-10T07:21:16.884Z,977.19
2016-12-10T07:22:16.839Z,977.24
2016-12-10T07:23:16.796Z,977.2
2016-12-10T07:24:16.754Z,977.2
2016-12-10T07:25:16.710Z,977.25
2016-12-10T07:26:16.667Z,977.26
2016-12-10T07:27:16.622Z,977.26
2016-12-10T07:28:16.580Z,977.28
2016-12-10T07:29:16.539Z,977.24
2016-12-10T07:30:16.495Z,977.28
2016-12-10T07:31:16.450Z,977.28
2016-12-10T07:32:16.409Z,977.32
2016-12-10T07:33:16.367Z,977.27
2016-12-10T07:34:16.322Z,977.33
2016-12-10T07:35:16.279Z,977.32
2016-12-10T07:36:16.237Z,977.35
2016-12-10T07:37:16.193Z,977.34
2016-12-10T07:38:16.150Z,977.3
2016-12-10T07:39:16.106Z,977.3
2016-12-10T07:40:16.064Z,977.34
2016-12-10T07:41:16.022Z,977.32
2016-12-10T07:42:15.978Z,977.34
2016-12-10T07:43:15.936Z,977.36
2016-12-10T07:44:15.899Z,977.35
2016-12-10T07:45:15.851Z,977.37
2016-12-10T07:46:15.808Z,977.34
2016-12-10T07:47:15.764Z,977.36
2016-12-10T07:48:15.721Z,977.42
2016-12-10T07:49:15.679Z,977.43
2016-12-10T07:50:15.635Z,977.46
2016-12-10T07:51:15.593Z,977.43
2016-12-10T07:52:15.548Z,977.45
2016-12-10T07:53:15.504Z,977.47
2016-12-10T07:54:15.463Z,977.51
2016-12-10T07:55:15.419Z,977.51
2016-12-10T07:56:15.376Z,977.49
2016-12-10T07:57:15.333Z,977.5
2016-12-10T07:58:15.289Z,977.53
2016-12-10T07:59:15.247Z,977.47
2016-12-10T08:00:15.203Z,977.46
2016-12-10T08:01:15.161Z,977.42
2016-12-10T08:02:15.118Z,977.46
2016-12-10T08:03:15.073Z,977.46
2016-12-10T08:04:15.032Z,977.47
2016-12-10T08:05:14.988Z,977.51
2016-12-10T08:06:14.944Z,977.49
2016-12-10T08:07:14.903Z,977.5
2016-12-10T08:08:14.859Z,977.5
2016-12-10T08:09:14.818Z,977.52
2016-12-10T08:10:14.775Z,977.49
2016-12-10T08:11:14.732Z,977.49
2016-12-10T08:12:14.689Z,977.5
2016-12-10T08:13:14.646Z,977.53
2016-12-10T08:14:14.602Z,977.48
2016-12-10T08:15:14.561Z,977.47
2016-12-10T08:16:14.517Z,977.49
2016-12-10T08:17:14.477Z,977.5
2016-12-10T08:18:14.433Z,977.47
2016-12-10T08:19:14.389Z,977.49
2016-12-10T08:20:14.346Z,977.48
2016-12-10T08:21:14.305Z,977.47
2016-12-10T08:22:14.260Z,977.48
2016-12-10T08:23:14.220Z,977.48
2016-12-10T08:24:14.177Z,977.47
2016-12-10T08:25:14.134Z,977.45
2016-12-10T08:26:14.090Z,977.47
2016-12-10T08:27:14.051Z,977.48
2016-12-10T08:28:14.005Z,977.51
2016-12-10T08:29:13.962Z,977.49
2016-12-10T08:30:13.920Z,977.52
2016-12-10T08:31:13.877Z,977.52
2016-12-10T08:32:13.837Z,977.52
2016-12-10T08:33:13.791Z,977.51
2016-12-10T08:34:13.751Z,977.55
2016-12-10T08:35:13.706Z,977.53
2016-12-10T08:36:13.663Z,977.52
2016-12-10T08:37:13.622Z,977.52
2016-12-10T08:38:13.578Z,977.53
2016-12-10T08:39:13.536Z,977.49
2016-12-10T08:40:13.493Z,977.46
2016-12-10T08:41:13.451Z,977.51
2016-12-10T08:42:13.407Z,977.51
2016-12-10T08:43:13.364Z,977.49
2016-12-10T08:44:13.321Z,977.54
2016-12-10T08:45:13.278Z,977.55
2016-12-10T08:46:13.238Z,977.53
2016-12-10T08:47:13.193Z,977.55
2016-12-10T08:48:13.150Z,977.49
2016-12-10T08:49:13.108Z,977.54
2016-12-10T08:50:13.065Z,977.55
2016-12-10T08:51:13.023Z,977.47
2016-12-10T08:52:12.979Z,977.57
2016-12-10T08:53:12.938Z,977.5
2016-12-10T08:54:12.893Z,977.51
2016-12-10T08:55:12.849Z,977.5
2016-12-10T08:56:12.809Z,977.51
2016-12-10T08:57:12.765Z,977.51
2016-12-10T08:58:12.723Z,977.52
2016-12-10T08:59:12.680Z,977.53
2016-12-10T09:00:12.637Z,977.5
2016-12-10T09:01:12.592Z,977.53
2016-12-10T09:02:12.550Z,977.51
2016-12-10T09:03:12.507Z,977.49
2016-12-10T09:04:12.466Z,977.54
2016-12-10T09:05:12.422Z,977.52
2016-12-10T09:06:12.378Z,977.55
2016-12-10T09:07:12.336Z,977.5
2016-12-10T09:08:12.295Z,977.57
2016-12-10T09:09:12.249Z,977.49
2016-12-10T09:10:12.209Z,977.56
2016-12-10T09:11:12.172Z,977.53
2016-12-10T09:12:12.123Z,977.56
2016-12-10T09:13:12.081Z,977.54
2016-12-10T09:14:12.036Z,977.52
2016-12-10T09:15:11.995Z,977.51
2016-12-10T09:16:11.952Z,977.51
2016-12-10T09:17:11.911Z,977.51
2016-12-10T09:18:11.869Z,977.51
2016-12-10T09:19:11.828Z,977.49
2016-12-10T09:20:11.783Z,977.5
2016-12-10T09:21:11.741Z,977.53
2016-12-10T09:22:11.699Z,977.52
2016-12-10T09:23:11.658Z,977.53
2016-12-10T09:24:11.614Z,977.53
2016-12-10T09:25:11.571Z,977.48
2016-12-10T09:26:11.529Z,977.48
2016-12-10T09:27:11.486Z,977.48
2016-12-10T09:28:11.445Z,977.49
2016-12-10T09:29:11.405Z,977.47
2016-12-10T09:30:11.361Z,977.42
2016-12-10T09:31:11.319Z,977.41
2016-12-10T09:32:11.276Z,977.39
2016-12-10T09:33:11.235Z,977.38
2016-12-10T09:34:11.193Z,977.38
2016-12-10T09:35:11.163Z,977.36
2016-12-10T09:36:11.108Z,977.42
2016-12-10T09:37:11.069Z,977.47
2016-12-10T09:38:11.023Z,977.42
2016-12-10T09:39:10.980Z,977.42
2016-12-10T09:40:10.940Z,977.44
2016-12-10T09:41:10.899Z,977.36
2016-12-10T09:42:10.853Z,977.35
2016-12-10T09:43:10.814Z,977.36
2016-12-10T09:44:10.772Z,977.33
2016-12-10T09:45:10.730Z,977.35
2016-12-10T09:46:10.687Z,977.34
2016-12-10T09:47:10.646Z,977.33
2016-12-10T09:48:10.604Z,977.27
2016-12-10T09:49:10.561Z,977.27
2016-12-10T09:50:10.524Z,977.29
2016-12-10T09:51:10.479Z,977.25
2016-12-10T09:52:10.439Z,977.25
2016-12-10T09:53:10.396Z,977.25
2016-12-10T09:54:10.354Z,977.28
2016-12-10T09:55:10.313Z,977.27
2016-12-10T09:56:10.271Z,977.25
2016-12-10T09:57:10.229Z,977.28
2016-12-10T09:58:10.191Z,977.25
2016-12-10T09:59:10.147Z,977.29
2016-12-10T10:00:10.106Z,977.26
2016-12-10T10:01:10.064Z,977.28
2016-12-10T10:02:10.023Z,977.3
2016-12-10T10:03:09.983Z,977.3
2016-12-10T10:04:09.940Z,977.27
2016-12-10T10:05:09.898Z,977.25
2016-12-10T10:06:09.855Z,977.24
2016-12-10T10:07:09.816Z,977.27
2016-12-10T10:08:09.774Z,977.3
2016-12-10T10:09:09.732Z,977.29
2016-12-10T10:10:09.693Z,977.29
2016-12-10T10:11:09.651Z,977.3
2016-12-10T10:12:09.610Z,977.25
2016-12-10T10:13:09.569Z,977.25
2016-12-10T10:14:09.543Z,977.25
2016-12-10T10:15:09.486Z,977.26
2016-12-10T10:16:09.445Z,977.25
2016-12-10T10:17:09.405Z,977.23
2016-12-10T10:18:09.363Z,977.25
2016-12-10T10:19:09.323Z,977.19
2016-12-10T10:20:09.280Z,977.22
2016-12-10T10:21:09.240Z,977.19
2016-12-10T10:22:09.198Z,977.21
2016-12-10T10:23:09.158Z,977.19
2016-12-10T10:24:09.117Z,977.16
2016-12-10T10:25:09.077Z,977.19
2016-12-10T10:26:09.035Z,977.17
2016-12-10T10:27:08.994Z,977.19
2016-12-10T10:28:08.954Z,977.15
2016-12-10T10:29:08.912Z,977.18
2016-12-10T10:30:08.873Z,977.16
2016-12-10T10:31:08.832Z,977.17
2016-12-10T10:32:08.790Z,977.13
2016-12-10T10:33:08.749Z,977.13
2016-12-10T10:34:08.708Z,977.11
2016-12-10T10:35:08.667Z,977.13
2016-12-10T10:36:08.627Z,977.08
2016-12-10T10:37:08.586Z,977.16
2016-12-10T10:38:08.545Z,977.09
2016-12-10T10:39:08.507Z,977.11
2016-12-10T10:40:08.465Z,977.06
2016-12-10T10:41:08.423Z,977.02
2016-12-10T10:42:08.382Z,977.04
2016-12-10T10:43:08.342Z,977.05
2016-12-10T10:44:08.301Z,977.12
2016-12-10T10:45:08.259Z,977.09
2016-12-10T10:46:08.219Z,977.11
2016-12-10T10:47:08.180Z,977.11
2016-12-10T10:48:08.138Z,977.1
2016-12-10T10:49:08.099Z,977.07
2016-12-10T10:50:08.058Z,977.06
2016-12-10T10:51:08.017Z,977.03
2016-12-10T10:52:07.977Z,977.06
2016-12-10T10:53:07.936Z,977.03
2016-12-10T10:54:07.896Z,977.06
2016-12-10T10:55:07.854Z,977.02
2016-12-10T10:56:07.813Z,977.05
2016-12-10T10:57:07.784Z,977.05
2016-12-10T10:58:07.735Z,977.03
2016-12-10T10:59:07.694Z,977.03
2016-12-10T11:00:07.651Z,977.06
2016-12-10T11:01:07.611Z,976.99
2016-12-10T11:02:07.569Z,977
2016-12-10T11:03:07.531Z,977.01
2016-12-10T11:04:07.490Z,977.02
2016-12-10T11:05:07.448Z,976.96
2016-12-10T11:06:07.408Z,976.99
2016-12-10T11:07:07.367Z,976.95
2016-12-10T11:08:07.329Z,976.96
2016-12-10T11:09:07.287Z,976.98
2016-12-10T11:10:07.246Z,976.93
2016-12-10T11:11:07.206Z,976.95
2016-12-10T11:12:07.166Z,976.89
2016-12-10T11:13:07.126Z,976.88
2016-12-10T11:14:07.086Z,976.87
2016-12-10T11:15:07.042Z,976.85
2016-12-10T11:16:07.004Z,976.81
2016-12-10T11:17:06.963Z,976.8
2016-12-10T11:18:06.923Z,976.76
2016-12-10T11:19:06.883Z,976.73
2016-12-10T11:20:06.843Z,976.77
2016-12-10T11:21:06.802Z,976.73
2016-12-10T11:22:06.760Z,976.72
2016-12-10T11:23:06.722Z,976.72
2016-12-10T11:24:06.682Z,976.75
2016-12-10T11:25:06.643Z,976.75
2016-12-10T11:26:06.600Z,976.7
2016-12-10T11:27:06.562Z,976.66
2016-12-10T11:28:06.519Z,976.66
2016-12-10T11:29:06.480Z,976.67
2016-12-10T11:30:06.442Z,976.61
2016-12-10T11:31:06.402Z,976.62
2016-12-10T11:32:06.358Z,976.65
2016-12-10T11:33:06.319Z,976.68
2016-12-10T11:34:06.279Z,976.65
2016-12-10T11:35:06.242Z,976.64
2016-12-10T11:36:06.199Z,976.65
2016-12-10T11:37:06.159Z,976.6
2016-12-10T11:38:06.118Z,976.6
2016-12-10T11:39:06.077Z,976.59
2016-12-10T11:40:06.038Z,976.56
2016-12-10T11:41:05.998Z,976.56
2016-12-10T11:42:05.958Z,976.52
2016-12-10T11:43:05.918Z,976.57
2016-12-10T11:44:05.877Z,976.57
2016-12-10T11:45:05.839Z,976.51
2016-12-10T11:46:05.795Z,976.5
2016-12-10T11:47:05.757Z,976.48
2016-12-10T11:48:05.715Z,976.41
2016-12-10T11:49:05.676Z,976.48
2016-12-10T11:50:05.635Z,976.4
2016-12-10T11:51:05.596Z,976.44
2016-12-10T11:52:05.556Z,976.41
2016-12-10T11:53:05.516Z,976.36
2016-12-10T11:54:05.476Z,976.4
2016-12-10T11:55:05.435Z,976.34
2016-12-10T11:56:05.395Z,976.34
2016-12-10T11:57:05.353Z,976.35
2016-12-10T11:58:05.313Z,976.37
2016-12-10T11:59:05.272Z,976.37
2016-12-10T12:00:05.232Z,976.31
2016-12-10T12:01:05.191Z,976.33
2016-12-10T12:02:05.151Z,976.3
2016-12-10T12:03:05.111Z,976.26
2016-12-10T12:04:05.071Z,976.25
2016-12-10T12:05:05.029Z,976.25
2016-12-10T12:06:04.989Z,976.24
2016-12-10T12:07:04.948Z,976.25
2016-12-10T12:08:04.907Z,976.27
2016-12-10T12:09:04.866Z,976.28
2016-12-10T12:10:04.826Z,976.27
2016-12-10T12:11:04.785Z,976.26
2016-12-10T12:12:04.744Z,976.23
2016-12-10T12:13:04.704Z,976.26
2016-12-10T12:14:04.662Z,976.25
2016-12-10T12:15:05.125Z,976.27
2016-12-10T12:16:04.584Z,976.22
2016-12-10T12:17:04.543Z,976.2
2016-12-10T12:18:04.501Z,976.2
2016-12-10T12:19:04.460Z,976.17
2016-12-10T12:20:04.419Z,976.16
2016-12-10T12:21:04.380Z,976.14
2016-12-10T12:22:04.338Z,976.11
2016-12-10T12:23:04.297Z,976.13
2016-12-10T12:24:04.256Z,976.14
2016-12-10T12:25:04.216Z,976.17
2016-12-10T12:26:04.175Z,976.11
2016-12-10T12:27:04.134Z,976.11
2016-12-10T12:28:04.092Z,976.12
2016-12-10T12:29:04.054Z,976.11
2016-12-10T12:30:04.010Z,976.13